sensor_id;sensor_type;location;lat;lon;timestamp;P1;durP1;ratioP1;P2;durP2;ratioP2
76852;SDS011;65825;52.232;10.566;2024-02-21T00:01:22;18.33;;;4.93;;
76852;SDS011;65825;52.232;10.566;2024-02-21T00:03:47;14.50;;;4.63;;
76852;SDS011;65825;52.232;10.566;2024-02-21T00:06:12;15.83;;;4.73;;
76852;SDS011;65825;52.232;10.566;2024-02-21T00:08:38;12.10;;;4.63;;
76852;SDS011;65825;52.232;10.566;2024-02-21T00:11:03;11.47;;;4.87;;
76852;SDS011;65825;52.232;10.566;2024-02-21T00:13:28;12.32;;;4.25;;
76852;SDS011;65825;52.232;10.566;2024-02-21T00:15:54;9.73;;;3.65;;
76852;SDS011;65825;52.232;10.566;2024-02-21T00:18:19;14.73;;;4.60;;
76852;SDS011;65825;52.232;10.566;2024-02-21T00:20:44;18.93;;;4.80;;
76852;SDS011;65825;52.232;10.566;2024-02-21T00:23:10;14.20;;;4.47;;
76852;SDS011;65825;52.232;10.566;2024-02-21T00:25:35;14.17;;;4.13;;
76852;SDS011;65825;52.232;10.566;2024-02-21T00:28:00;16.47;;;4.97;;
76852;SDS011;65825;52.232;10.566;2024-02-21T00:30:25;14.63;;;4.30;;
76852;SDS011;65825;52.232;10.566;2024-02-21T00:32:51;13.00;;;3.73;;
76852;SDS011;65825;52.232;10.566;2024-02-21T00:35:16;12.27;;;4.90;;
76852;SDS011;65825;52.232;10.566;2024-02-21T00:37:41;11.80;;;4.37;;
76852;SDS011;65825;52.232;10.566;2024-02-21T00:40:07;13.63;;;4.90;;
76852;SDS011;65825;52.232;10.566;2024-02-21T00:42:32;10.15;;;3.83;;
76852;SDS011;65825;52.232;10.566;2024-02-21T00:44:57;12.37;;;4.13;;
76852;SDS011;65825;52.232;10.566;2024-02-21T00:47:23;14.43;;;4.78;;
76852;SDS011;65825;52.232;10.566;2024-02-21T00:49:48;12.77;;;5.47;;
76852;SDS011;65825;52.232;10.566;2024-02-21T00:52:13;12.50;;;4.20;;
76852;SDS011;65825;52.232;10.566;2024-02-21T00:54:38;10.70;;;4.53;;
76852;SDS011;65825;52.232;10.566;2024-02-21T00:57:04;14.73;;;4.70;;
76852;SDS011;65825;52.232;10.566;2024-02-21T00:59:29;15.68;;;5.35;;
76852;SDS011;65825;52.232;10.566;2024-02-21T01:01:54;17.57;;;5.37;;
76852;SDS011;65825;52.232;10.566;2024-02-21T01:04:20;15.43;;;5.57;;
76852;SDS011;65825;52.232;10.566;2024-02-21T01:06:45;13.17;;;4.80;;
76852;SDS011;65825;52.232;10.566;2024-02-21T01:09:10;13.40;;;5.00;;
76852;SDS011;65825;52.232;10.566;2024-02-21T01:11:36;15.80;;;5.45;;
76852;SDS011;65825;52.232;10.566;2024-02-21T01:14:01;20.00;;;6.10;;
76852;SDS011;65825;52.232;10.566;2024-02-21T01:16:26;14.63;;;5.77;;
76852;SDS011;65825;52.232;10.566;2024-02-21T01:18:52;19.40;;;6.40;;
76852;SDS011;65825;52.232;10.566;2024-02-21T01:21:17;15.43;;;5.87;;
76852;SDS011;65825;52.232;10.566;2024-02-21T01:23:42;13.70;;;6.07;;
76852;SDS011;65825;52.232;10.566;2024-02-21T01:26:07;13.50;;;6.40;;
76852;SDS011;65825;52.232;10.566;2024-02-21T01:28:33;11.30;;;5.07;;
76852;SDS011;65825;52.232;10.566;2024-02-21T01:30:59;16.67;;;6.22;;
76852;SDS011;65825;52.232;10.566;2024-02-21T01:33:24;16.80;;;6.47;;
76852;SDS011;65825;52.232;10.566;2024-02-21T01:35:49;13.43;;;6.23;;
76852;SDS011;65825;52.232;10.566;2024-02-21T01:38:15;16.13;;;7.13;;
76852;SDS011;65825;52.232;10.566;2024-02-21T01:40:40;13.75;;;6.65;;
76852;SDS011;65825;52.232;10.566;2024-02-21T01:43:14;19.03;;;6.97;;
76852;SDS011;65825;52.232;10.566;2024-02-21T01:45:40;16.65;;;6.50;;
76852;SDS011;65825;52.232;10.566;2024-02-21T01:48:06;18.77;;;7.13;;
76852;SDS011;65825;52.232;10.566;2024-02-21T01:50:31;14.88;;;5.10;;
76852;SDS011;65825;52.232;10.566;2024-02-21T01:52:57;17.73;;;7.93;;
76852;SDS011;65825;52.232;10.566;2024-02-21T01:55:22;16.50;;;5.75;;
76852;SDS011;65825;52.232;10.566;2024-02-21T01:57:47;18.60;;;7.57;;
76852;SDS011;65825;52.232;10.566;2024-02-21T02:00:13;21.40;;;7.50;;
76852;SDS011;65825;52.232;10.566;2024-02-21T02:02:39;19.40;;;7.30;;
76852;SDS011;65825;52.232;10.566;2024-02-21T02:05:05;18.50;;;6.88;;
76852;SDS011;65825;52.232;10.566;2024-02-21T02:07:32;19.27;;;8.98;;
76852;SDS011;65825;52.232;10.566;2024-02-21T02:09:57;18.13;;;7.63;;
76852;SDS011;65825;52.232;10.566;2024-02-21T02:12:23;18.73;;;8.00;;
76852;SDS011;65825;52.232;10.566;2024-02-21T02:14:57;21.67;;;7.57;;
76852;SDS011;65825;52.232;10.566;2024-02-21T02:17:24;20.77;;;7.35;;
76852;SDS011;65825;52.232;10.566;2024-02-21T02:19:49;16.07;;;7.03;;
76852;SDS011;65825;52.232;10.566;2024-02-21T02:22:15;16.83;;;7.70;;
76852;SDS011;65825;52.232;10.566;2024-02-21T02:24:47;17.45;;;8.32;;
76852;SDS011;65825;52.232;10.566;2024-02-21T02:27:12;23.47;;;9.37;;
76852;SDS011;65825;52.232;10.566;2024-02-21T02:29:37;22.03;;;8.07;;
76852;SDS011;65825;52.232;10.566;2024-02-21T02:32:02;16.83;;;7.73;;
76852;SDS011;65825;52.232;10.566;2024-02-21T02:34:28;18.58;;;7.20;;
76852;SDS011;65825;52.232;10.566;2024-02-21T02:36:53;19.20;;;7.70;;
76852;SDS011;65825;52.232;10.566;2024-02-21T02:39:19;15.77;;;7.57;;
76852;SDS011;65825;52.232;10.566;2024-02-21T02:41:44;17.13;;;8.90;;
76852;SDS011;65825;52.232;10.566;2024-02-21T02:44:10;19.80;;;7.27;;
76852;SDS011;65825;52.232;10.566;2024-02-21T02:46:35;17.30;;;8.10;;
76852;SDS011;65825;52.232;10.566;2024-02-21T02:49:00;16.77;;;7.17;;
76852;SDS011;65825;52.232;10.566;2024-02-21T02:51:25;20.83;;;8.53;;
76852;SDS011;65825;52.232;10.566;2024-02-21T02:53:51;14.87;;;7.30;;
76852;SDS011;65825;52.232;10.566;2024-02-21T02:56:16;21.20;;;7.77;;
76852;SDS011;65825;52.232;10.566;2024-02-21T02:58:44;14.20;;;7.20;;
76852;SDS011;65825;52.232;10.566;2024-02-21T03:01:09;17.08;;;8.15;;
76852;SDS011;65825;52.232;10.566;2024-02-21T03:03:35;17.87;;;8.07;;
76852;SDS011;65825;52.232;10.566;2024-02-21T03:06:00;15.25;;;6.90;;
76852;SDS011;65825;52.232;10.566;2024-02-21T03:08:26;23.73;;;8.70;;
76852;SDS011;65825;52.232;10.566;2024-02-21T03:10:51;19.17;;;7.57;;
76852;SDS011;65825;52.232;10.566;2024-02-21T03:13:16;20.73;;;9.10;;
76852;SDS011;65825;52.232;10.566;2024-02-21T03:15:41;18.17;;;7.93;;
76852;SDS011;65825;52.232;10.566;2024-02-21T03:18:07;22.73;;;9.30;;
76852;SDS011;65825;52.232;10.566;2024-02-21T03:20:32;19.13;;;8.20;;
76852;SDS011;65825;52.232;10.566;2024-02-21T03:22:57;22.00;;;7.90;;
76852;SDS011;65825;52.232;10.566;2024-02-21T03:25:22;24.50;;;8.40;;
76852;SDS011;65825;52.232;10.566;2024-02-21T03:27:48;18.03;;;8.80;;
76852;SDS011;65825;52.232;10.566;2024-02-21T03:30:13;20.17;;;8.30;;
76852;SDS011;65825;52.232;10.566;2024-02-21T03:32:38;15.60;;;6.93;;
76852;SDS011;65825;52.232;10.566;2024-02-21T03:35:04;19.45;;;9.02;;
76852;SDS011;65825;52.232;10.566;2024-02-21T03:37:30;18.08;;;8.13;;
76852;SDS011;65825;52.232;10.566;2024-02-21T03:39:55;19.80;;;7.83;;
76852;SDS011;65825;52.232;10.566;2024-02-21T03:42:20;21.37;;;8.53;;
76852;SDS011;65825;52.232;10.566;2024-02-21T03:44:45;16.60;;;8.37;;
76852;SDS011;65825;52.232;10.566;2024-02-21T03:47:11;22.70;;;8.03;;
76852;SDS011;65825;52.232;10.566;2024-02-21T03:49:36;23.83;;;8.20;;
76852;SDS011;65825;52.232;10.566;2024-02-21T03:52:02;16.98;;;8.77;;
76852;SDS011;65825;52.232;10.566;2024-02-21T03:54:27;14.98;;;6.97;;
76852;SDS011;65825;52.232;10.566;2024-02-21T03:56:53;19.60;;;8.23;;
76852;SDS011;65825;52.232;10.566;2024-02-21T03:59:18;20.13;;;9.07;;
76852;SDS011;65825;52.232;10.566;2024-02-21T04:01:43;16.77;;;7.57;;
76852;SDS011;65825;52.232;10.566;2024-02-21T04:04:09;22.27;;;9.47;;
76852;SDS011;65825;52.232;10.566;2024-02-21T04:06:35;22.45;;;8.90;;
76852;SDS011;65825;52.232;10.566;2024-02-21T04:09:00;20.73;;;10.00;;
76852;SDS011;65825;52.232;10.566;2024-02-21T04:11:25;17.90;;;9.00;;
76852;SDS011;65825;52.232;10.566;2024-02-21T04:13:50;23.00;;;8.77;;
76852;SDS011;65825;52.232;10.566;2024-02-21T04:16:16;20.17;;;8.70;;
76852;SDS011;65825;52.232;10.566;2024-02-21T04:18:42;20.00;;;9.43;;
76852;SDS011;65825;52.232;10.566;2024-02-21T04:21:08;18.13;;;8.85;;
76852;SDS011;65825;52.232;10.566;2024-02-21T04:23:34;17.88;;;8.30;;
76852;SDS011;65825;52.232;10.566;2024-02-21T04:25:59;21.77;;;8.77;;
76852;SDS011;65825;52.232;10.566;2024-02-21T04:28:24;19.13;;;8.83;;
76852;SDS011;65825;52.232;10.566;2024-02-21T04:30:49;28.17;;;9.23;;
76852;SDS011;65825;52.232;10.566;2024-02-21T04:33:15;21.73;;;10.43;;
76852;SDS011;65825;52.232;10.566;2024-02-21T04:35:40;16.80;;;6.93;;
76852;SDS011;65825;52.232;10.566;2024-02-21T04:38:05;15.43;;;8.37;;
76852;SDS011;65825;52.232;10.566;2024-02-21T04:40:31;22.25;;;8.35;;
76852;SDS011;65825;52.232;10.566;2024-02-21T04:42:57;20.13;;;8.23;;
76852;SDS011;65825;52.232;10.566;2024-02-21T04:45:22;35.05;;;16.23;;
76852;SDS011;65825;52.232;10.566;2024-02-21T04:47:48;21.90;;;8.40;;
76852;SDS011;65825;52.232;10.566;2024-02-21T04:50:13;24.73;;;11.13;;
76852;SDS011;65825;52.232;10.566;2024-02-21T04:52:38;18.20;;;7.60;;
76852;SDS011;65825;52.232;10.566;2024-02-21T04:55:04;21.63;;;9.87;;
76852;SDS011;65825;52.232;10.566;2024-02-21T04:57:29;16.05;;;7.18;;
76852;SDS011;65825;52.232;10.566;2024-02-21T04:59:54;19.23;;;10.43;;
76852;SDS011;65825;52.232;10.566;2024-02-21T05:02:20;18.13;;;7.90;;
76852;SDS011;65825;52.232;10.566;2024-02-21T05:04:47;20.05;;;8.90;;
76852;SDS011;65825;52.232;10.566;2024-02-21T05:07:12;20.40;;;10.33;;
76852;SDS011;65825;52.232;10.566;2024-02-21T05:09:38;14.80;;;6.47;;
76852;SDS011;65825;52.232;10.566;2024-02-21T05:12:03;14.45;;;7.57;;
76852;SDS011;65825;52.232;10.566;2024-02-21T05:14:29;14.82;;;7.90;;
76852;SDS011;65825;52.232;10.566;2024-02-21T05:16:54;17.37;;;7.97;;
76852;SDS011;65825;52.232;10.566;2024-02-21T05:19:19;16.30;;;7.40;;
76852;SDS011;65825;52.232;10.566;2024-02-21T05:21:45;15.77;;;7.72;;
76852;SDS011;65825;52.232;10.566;2024-02-21T05:24:10;18.60;;;8.15;;
76852;SDS011;65825;52.232;10.566;2024-02-21T05:26:36;16.27;;;7.45;;
76852;SDS011;65825;52.232;10.566;2024-02-21T05:29:01;17.17;;;6.80;;
76852;SDS011;65825;52.232;10.566;2024-02-21T05:31:26;14.30;;;7.03;;
76852;SDS011;65825;52.232;10.566;2024-02-21T05:34:19;15.23;;;6.60;;
76852;SDS011;65825;52.232;10.566;2024-02-21T05:36:44;12.15;;;5.68;;
76852;SDS011;65825;52.232;10.566;2024-02-21T05:39:09;12.77;;;5.40;;
76852;SDS011;65825;52.232;10.566;2024-02-21T05:41:35;11.75;;;6.78;;
76852;SDS011;65825;52.232;10.566;2024-02-21T05:44:00;14.03;;;6.60;;
76852;SDS011;65825;52.232;10.566;2024-02-21T05:46:26;13.55;;;5.72;;
76852;SDS011;65825;52.232;10.566;2024-02-21T05:48:51;19.03;;;6.97;;
76852;SDS011;65825;52.232;10.566;2024-02-21T05:51:16;10.73;;;5.83;;
76852;SDS011;65825;52.232;10.566;2024-02-21T05:53:41;14.43;;;6.90;;
76852;SDS011;65825;52.232;10.566;2024-02-21T05:56:13;13.57;;;6.77;;
76852;SDS011;65825;52.232;10.566;2024-02-21T05:58:39;12.77;;;6.93;;
76852;SDS011;65825;52.232;10.566;2024-02-21T06:01:04;13.45;;;7.18;;
76852;SDS011;65825;52.232;10.566;2024-02-21T06:05:57;14.77;;;5.00;;
76852;SDS011;65825;52.232;10.566;2024-02-21T06:08:22;12.60;;;6.05;;
76852;SDS011;65825;52.232;10.566;2024-02-21T06:10:47;15.23;;;6.77;;
76852;SDS011;65825;52.232;10.566;2024-02-21T06:13:13;19.02;;;8.27;;
76852;SDS011;65825;52.232;10.566;2024-02-21T06:15:39;13.77;;;6.82;;
76852;SDS011;65825;52.232;10.566;2024-02-21T06:18:04;17.33;;;7.38;;
76852;SDS011;65825;52.232;10.566;2024-02-21T06:20:29;15.33;;;7.53;;
76852;SDS011;65825;52.232;10.566;2024-02-21T06:22:55;16.17;;;7.43;;
76852;SDS011;65825;52.232;10.566;2024-02-21T06:25:20;17.50;;;7.37;;
76852;SDS011;65825;52.232;10.566;2024-02-21T06:27:45;17.10;;;7.87;;
76852;SDS011;65825;52.232;10.566;2024-02-21T06:30:10;16.30;;;7.53;;
76852;SDS011;65825;52.232;10.566;2024-02-21T06:32:36;16.48;;;7.80;;
76852;SDS011;65825;52.232;10.566;2024-02-21T06:35:01;13.73;;;7.43;;
76852;SDS011;65825;52.232;10.566;2024-02-21T06:37:26;15.43;;;7.57;;
76852;SDS011;65825;52.232;10.566;2024-02-21T06:39:52;15.60;;;7.38;;
76852;SDS011;65825;52.232;10.566;2024-02-21T06:42:17;14.33;;;6.33;;
76852;SDS011;65825;52.232;10.566;2024-02-21T06:44:43;21.07;;;8.93;;
76852;SDS011;65825;52.232;10.566;2024-02-21T06:47:09;18.73;;;8.27;;
76852;SDS011;65825;52.232;10.566;2024-02-21T06:49:34;10.73;;;5.47;;
76852;SDS011;65825;52.232;10.566;2024-02-21T06:52:00;14.87;;;7.63;;
76852;SDS011;65825;52.232;10.566;2024-02-21T06:54:25;14.93;;;6.57;;
76852;SDS011;65825;52.232;10.566;2024-02-21T06:56:50;11.37;;;5.97;;
76852;SDS011;65825;52.232;10.566;2024-02-21T06:59:15;17.20;;;7.30;;
76852;SDS011;65825;52.232;10.566;2024-02-21T07:01:44;14.73;;;7.47;;
76852;SDS011;65825;52.232;10.566;2024-02-21T07:04:10;15.90;;;6.97;;
76852;SDS011;65825;52.232;10.566;2024-02-21T07:06:36;15.57;;;7.03;;
76852;SDS011;65825;52.232;10.566;2024-02-21T07:09:01;22.47;;;8.17;;
76852;SDS011;65825;52.232;10.566;2024-02-21T07:11:26;20.13;;;7.73;;
76852;SDS011;65825;52.232;10.566;2024-02-21T07:13:52;16.53;;;7.20;;
76852;SDS011;65825;52.232;10.566;2024-02-21T07:16:17;14.10;;;7.45;;
76852;SDS011;65825;52.232;10.566;2024-02-21T07:18:42;17.17;;;6.90;;
76852;SDS011;65825;52.232;10.566;2024-02-21T07:21:07;13.57;;;6.67;;
76852;SDS011;65825;52.232;10.566;2024-02-21T07:23:33;14.57;;;6.95;;
76852;SDS011;65825;52.232;10.566;2024-02-21T07:25:58;16.03;;;7.40;;
76852;SDS011;65825;52.232;10.566;2024-02-21T07:28:23;17.67;;;6.70;;
76852;SDS011;65825;52.232;10.566;2024-02-21T07:30:48;13.73;;;6.93;;
76852;SDS011;65825;52.232;10.566;2024-02-21T07:33:14;11.07;;;6.13;;
76852;SDS011;65825;52.232;10.566;2024-02-21T07:35:39;12.97;;;6.13;;
76852;SDS011;65825;52.232;10.566;2024-02-21T07:38:06;17.92;;;7.25;;
76852;SDS011;65825;52.232;10.566;2024-02-21T07:40:34;14.43;;;6.80;;
76852;SDS011;65825;52.232;10.566;2024-02-21T07:42:59;13.75;;;6.43;;
76852;SDS011;65825;52.232;10.566;2024-02-21T07:45:25;15.23;;;7.13;;
76852;SDS011;65825;52.232;10.566;2024-02-21T07:47:51;13.57;;;7.63;;
76852;SDS011;65825;52.232;10.566;2024-02-21T07:50:17;14.50;;;6.13;;
76852;SDS011;65825;52.232;10.566;2024-02-21T07:52:42;14.03;;;6.53;;
76852;SDS011;65825;52.232;10.566;2024-02-21T07:55:08;11.13;;;5.50;;
76852;SDS011;65825;52.232;10.566;2024-02-21T07:57:35;11.50;;;6.13;;
76852;SDS011;65825;52.232;10.566;2024-02-21T08:00:00;14.63;;;6.40;;
76852;SDS011;65825;52.232;10.566;2024-02-21T08:02:26;16.37;;;7.07;;
76852;SDS011;65825;52.232;10.566;2024-02-21T08:04:51;16.30;;;6.87;;
76852;SDS011;65825;52.232;10.566;2024-02-21T08:07:16;13.97;;;5.73;;
76852;SDS011;65825;52.232;10.566;2024-02-21T08:09:41;12.30;;;6.57;;
76852;SDS011;65825;52.232;10.566;2024-02-21T08:12:07;13.13;;;5.90;;
76852;SDS011;65825;52.232;10.566;2024-02-21T08:14:32;16.13;;;6.73;;
76852;SDS011;65825;52.232;10.566;2024-02-21T08:16:57;17.47;;;5.90;;
76852;SDS011;65825;52.232;10.566;2024-02-21T08:19:24;12.80;;;6.55;;
76852;SDS011;65825;52.232;10.566;2024-02-21T08:21:49;13.00;;;6.53;;
76852;SDS011;65825;52.232;10.566;2024-02-21T08:24:15;12.13;;;5.93;;
76852;SDS011;65825;52.232;10.566;2024-02-21T08:26:40;16.90;;;6.57;;
76852;SDS011;65825;52.232;10.566;2024-02-21T08:29:06;12.98;;;6.47;;
76852;SDS011;65825;52.232;10.566;2024-02-21T08:31:32;19.80;;;5.93;;
76852;SDS011;65825;52.232;10.566;2024-02-21T08:33:57;14.57;;;6.47;;
76852;SDS011;65825;52.232;10.566;2024-02-21T08:36:29;9.70;;;5.90;;
76852;SDS011;65825;52.232;10.566;2024-02-21T08:38:58;15.80;;;6.90;;
76852;SDS011;65825;52.232;10.566;2024-02-21T08:41:24;13.73;;;7.20;;
76852;SDS011;65825;52.232;10.566;2024-02-21T08:43:51;14.90;;;6.40;;
76852;SDS011;65825;52.232;10.566;2024-02-21T08:46:17;10.48;;;6.13;;
76852;SDS011;65825;52.232;10.566;2024-02-21T08:48:43;14.80;;;6.33;;
76852;SDS011;65825;52.232;10.566;2024-02-21T08:51:08;7.50;;;4.78;;
76852;SDS011;65825;52.232;10.566;2024-02-21T08:53:33;17.47;;;6.63;;
76852;SDS011;65825;52.232;10.566;2024-02-21T08:55:59;10.10;;;5.73;;
76852;SDS011;65825;52.232;10.566;2024-02-21T08:58:24;11.30;;;6.00;;
76852;SDS011;65825;52.232;10.566;2024-02-21T09:03:17;18.38;;;6.47;;
76852;SDS011;65825;52.232;10.566;2024-02-21T09:05:45;14.90;;;5.50;;
76852;SDS011;65825;52.232;10.566;2024-02-21T09:08:10;10.27;;;5.28;;
76852;SDS011;65825;52.232;10.566;2024-02-21T09:10:36;10.47;;;4.53;;
76852;SDS011;65825;52.232;10.566;2024-02-21T09:13:01;11.43;;;5.80;;
76852;SDS011;65825;52.232;10.566;2024-02-21T09:17:53;8.97;;;5.43;;
76852;SDS011;65825;52.232;10.566;2024-02-21T09:20:19;10.75;;;4.78;;
76852;SDS011;65825;52.232;10.566;2024-02-21T09:22:44;10.43;;;4.80;;
76852;SDS011;65825;52.232;10.566;2024-02-21T09:25:09;12.67;;;5.00;;
76852;SDS011;65825;52.232;10.566;2024-02-21T09:27:37;13.32;;;4.68;;
76852;SDS011;65825;52.232;10.566;2024-02-21T09:30:03;9.70;;;5.00;;
76852;SDS011;65825;52.232;10.566;2024-02-21T09:32:30;9.52;;;4.60;;
76852;SDS011;65825;52.232;10.566;2024-02-21T09:34:55;10.93;;;4.13;;
76852;SDS011;65825;52.232;10.566;2024-02-21T09:37:20;11.63;;;4.20;;
76852;SDS011;65825;52.232;10.566;2024-02-21T09:39:45;7.37;;;3.70;;
76852;SDS011;65825;52.232;10.566;2024-02-21T09:42:12;7.25;;;3.60;;
76852;SDS011;65825;52.232;10.566;2024-02-21T09:44:43;7.55;;;4.07;;
76852;SDS011;65825;52.232;10.566;2024-02-21T09:47:12;7.45;;;3.83;;
76852;SDS011;65825;52.232;10.566;2024-02-21T09:49:56;8.90;;;3.55;;
76852;SDS011;65825;52.232;10.566;2024-02-21T09:52:23;6.38;;;3.45;;
76852;SDS011;65825;52.232;10.566;2024-02-21T09:54:51;6.25;;;3.13;;
76852;SDS011;65825;52.232;10.566;2024-02-21T09:57:17;10.73;;;3.55;;
76852;SDS011;65825;52.232;10.566;2024-02-21T09:59:43;8.38;;;3.70;;
76852;SDS011;65825;52.232;10.566;2024-02-21T10:02:10;10.13;;;3.83;;
76852;SDS011;65825;52.232;10.566;2024-02-21T10:04:37;10.65;;;4.03;;
76852;SDS011;65825;52.232;10.566;2024-02-21T10:07:04;8.90;;;3.28;;
76852;SDS011;65825;52.232;10.566;2024-02-21T10:09:29;9.32;;;3.60;;
76852;SDS011;65825;52.232;10.566;2024-02-21T10:12:07;7.90;;;3.93;;
76852;SDS011;65825;52.232;10.566;2024-02-21T10:14:34;8.63;;;3.28;;
76852;SDS011;65825;52.232;10.566;2024-02-21T10:17:00;7.67;;;3.73;;
76852;SDS011;65825;52.232;10.566;2024-02-21T10:19:25;8.17;;;3.83;;
76852;SDS011;65825;52.232;10.566;2024-02-21T10:24:28;9.70;;;4.47;;
76852;SDS011;65825;52.232;10.566;2024-02-21T10:27:01;7.78;;;3.70;;
76852;SDS011;65825;52.232;10.566;2024-02-21T10:29:28;6.28;;;3.47;;
76852;SDS011;65825;52.232;10.566;2024-02-21T10:32:09;9.77;;;4.07;;
76852;SDS011;65825;52.232;10.566;2024-02-21T10:34:37;5.47;;;3.22;;
76852;SDS011;65825;52.232;10.566;2024-02-21T10:37:03;8.20;;;3.55;;
76852;SDS011;65825;52.232;10.566;2024-02-21T10:39:33;9.55;;;4.07;;
76852;SDS011;65825;52.232;10.566;2024-02-21T10:42:03;8.43;;;3.58;;
76852;SDS011;65825;52.232;10.566;2024-02-21T10:44:29;5.30;;;3.17;;
76852;SDS011;65825;52.232;10.566;2024-02-21T10:46:56;6.97;;;3.35;;
76852;SDS011;65825;52.232;10.566;2024-02-21T10:49:23;8.00;;;3.20;;
76852;SDS011;65825;52.232;10.566;2024-02-21T10:51:50;7.38;;;3.45;;
76852;SDS011;65825;52.232;10.566;2024-02-21T10:57:21;4.75;;;3.08;;
76852;SDS011;65825;52.232;10.566;2024-02-21T10:59:47;6.35;;;3.17;;
76852;SDS011;65825;52.232;10.566;2024-02-21T11:02:13;6.80;;;3.42;;
76852;SDS011;65825;52.232;10.566;2024-02-21T11:04:39;6.22;;;3.25;;
76852;SDS011;65825;52.232;10.566;2024-02-21T11:07:06;9.98;;;3.60;;
76852;SDS011;65825;52.232;10.566;2024-02-21T11:09:32;6.95;;;2.95;;
76852;SDS011;65825;52.232;10.566;2024-02-21T11:11:58;5.53;;;3.22;;
76852;SDS011;65825;52.232;10.566;2024-02-21T11:14:27;6.90;;;3.33;;
76852;SDS011;65825;52.232;10.566;2024-02-21T11:16:53;4.03;;;1.98;;
76852;SDS011;65825;52.232;10.566;2024-02-21T11:19:19;8.65;;;2.75;;
76852;SDS011;65825;52.232;10.566;2024-02-21T11:21:46;7.85;;;2.80;;
76852;SDS011;65825;52.232;10.566;2024-02-21T11:24:12;7.43;;;3.17;;
76852;SDS011;65825;52.232;10.566;2024-02-21T11:26:39;6.95;;;3.03;;
76852;SDS011;65825;52.232;10.566;2024-02-21T11:29:07;7.32;;;3.25;;
76852;SDS011;65825;52.232;10.566;2024-02-21T11:34:09;6.45;;;2.72;;
76852;SDS011;65825;52.232;10.566;2024-02-21T11:36:35;8.65;;;2.88;;
76852;SDS011;65825;52.232;10.566;2024-02-21T11:39:04;12.18;;;3.30;;
76852;SDS011;65825;52.232;10.566;2024-02-21T11:41:31;6.95;;;3.08;;
76852;SDS011;65825;52.232;10.566;2024-02-21T11:43:56;4.82;;;2.72;;
76852;SDS011;65825;52.232;10.566;2024-02-21T11:46:22;5.80;;;2.77;;
76852;SDS011;65825;52.232;10.566;2024-02-21T11:48:48;6.63;;;2.58;;
76852;SDS011;65825;52.232;10.566;2024-02-21T11:53:50;7.72;;;3.22;;
76852;SDS011;65825;52.232;10.566;2024-02-21T11:56:16;8.48;;;3.22;;
76852;SDS011;65825;52.232;10.566;2024-02-21T11:58:41;6.00;;;2.77;;
76852;SDS011;65825;52.232;10.566;2024-02-21T12:01:07;11.98;;;3.22;;
76852;SDS011;65825;52.232;10.566;2024-02-21T12:03:33;7.10;;;2.83;;
76852;SDS011;65825;52.232;10.566;2024-02-21T12:06:00;6.60;;;2.67;;
76852;SDS011;65825;52.232;10.566;2024-02-21T12:08:28;5.07;;;2.60;;
76852;SDS011;65825;52.232;10.566;2024-02-21T12:11:15;5.93;;;3.60;;
76852;SDS011;65825;52.232;10.566;2024-02-21T12:13:41;6.28;;;2.95;;
76852;SDS011;65825;52.232;10.566;2024-02-21T12:16:06;7.17;;;3.23;;
76852;SDS011;65825;52.232;10.566;2024-02-21T12:18:31;6.67;;;3.90;;
76852;SDS011;65825;52.232;10.566;2024-02-21T12:20:56;6.80;;;3.30;;
76852;SDS011;65825;52.232;10.566;2024-02-21T12:23:26;7.70;;;2.78;;
76852;SDS011;65825;52.232;10.566;2024-02-21T12:25:52;5.15;;;3.55;;
76852;SDS011;65825;52.232;10.566;2024-02-21T12:28:19;9.32;;;3.55;;
76852;SDS011;65825;52.232;10.566;2024-02-21T12:30:44;8.80;;;3.37;;
76852;SDS011;65825;52.232;10.566;2024-02-21T12:33:09;9.60;;;3.50;;
76852;SDS011;65825;52.232;10.566;2024-02-21T12:35:35;8.40;;;3.27;;
76852;SDS011;65825;52.232;10.566;2024-02-21T12:38:00;6.43;;;3.17;;
76852;SDS011;65825;52.232;10.566;2024-02-21T12:40:26;5.53;;;2.75;;
76852;SDS011;65825;52.232;10.566;2024-02-21T12:42:57;5.13;;;2.92;;
76852;SDS011;65825;52.232;10.566;2024-02-21T12:45:23;6.85;;;3.25;;
76852;SDS011;65825;52.232;10.566;2024-02-21T12:47:48;6.57;;;3.23;;
76852;SDS011;65825;52.232;10.566;2024-02-21T12:50:13;7.27;;;3.50;;
76852;SDS011;65825;52.232;10.566;2024-02-21T12:52:40;8.10;;;3.60;;
76852;SDS011;65825;52.232;10.566;2024-02-21T12:55:05;6.30;;;2.75;;
76852;SDS011;65825;52.232;10.566;2024-02-21T12:57:31;10.50;;;3.58;;
76852;SDS011;65825;52.232;10.566;2024-02-21T12:59:56;7.63;;;3.17;;
76852;SDS011;65825;52.232;10.566;2024-02-21T13:02:21;8.20;;;2.93;;
76852;SDS011;65825;52.232;10.566;2024-02-21T13:04:46;6.17;;;3.20;;
76852;SDS011;65825;52.232;10.566;2024-02-21T13:07:12;5.27;;;2.97;;
76852;SDS011;65825;52.232;10.566;2024-02-21T13:09:37;10.33;;;2.87;;
76852;SDS011;65825;52.232;10.566;2024-02-21T13:12:02;8.43;;;3.50;;
76852;SDS011;65825;52.232;10.566;2024-02-21T13:14:28;9.23;;;2.97;;
76852;SDS011;65825;52.232;10.566;2024-02-21T13:16:54;8.73;;;2.70;;
76852;SDS011;65825;52.232;10.566;2024-02-21T13:19:19;5.22;;;2.30;;
76852;SDS011;65825;52.232;10.566;2024-02-21T13:21:45;9.30;;;2.90;;
76852;SDS011;65825;52.232;10.566;2024-02-21T13:24:10;7.80;;;2.77;;
76852;SDS011;65825;52.232;10.566;2024-02-21T13:26:36;8.17;;;2.87;;
76852;SDS011;65825;52.232;10.566;2024-02-21T13:29:01;6.57;;;3.03;;
76852;SDS011;65825;52.232;10.566;2024-02-21T13:31:26;5.23;;;2.50;;
76852;SDS011;65825;52.232;10.566;2024-02-21T13:33:51;6.33;;;2.63;;
76852;SDS011;65825;52.232;10.566;2024-02-21T13:36:17;6.30;;;3.00;;
76852;SDS011;65825;52.232;10.566;2024-02-21T13:38:43;4.82;;;2.75;;
76852;SDS011;65825;52.232;10.566;2024-02-21T13:41:08;6.20;;;2.67;;
76852;SDS011;65825;52.232;10.566;2024-02-21T13:43:34;12.05;;;3.60;;
76852;SDS011;65825;52.232;10.566;2024-02-21T13:45:59;5.63;;;2.30;;
76852;SDS011;65825;52.232;10.566;2024-02-21T13:48:27;6.82;;;2.65;;
76852;SDS011;65825;52.232;10.566;2024-02-21T13:50:54;7.55;;;2.70;;
76852;SDS011;65825;52.232;10.566;2024-02-21T13:53:19;6.03;;;2.47;;
76852;SDS011;65825;52.232;10.566;2024-02-21T13:55:45;6.80;;;2.42;;
76852;SDS011;65825;52.232;10.566;2024-02-21T13:58:11;4.67;;;2.10;;
76852;SDS011;65825;52.232;10.566;2024-02-21T14:00:36;7.38;;;2.22;;
76852;SDS011;65825;52.232;10.566;2024-02-21T14:03:01;2.97;;;2.10;;
76852;SDS011;65825;52.232;10.566;2024-02-21T14:05:27;6.55;;;2.20;;
76852;SDS011;65825;52.232;10.566;2024-02-21T14:07:52;4.87;;;2.37;;
76852;SDS011;65825;52.232;10.566;2024-02-21T14:10:19;5.68;;;2.38;;
76852;SDS011;65825;52.232;10.566;2024-02-21T14:12:46;6.60;;;2.33;;
76852;SDS011;65825;52.232;10.566;2024-02-21T14:15:12;6.15;;;2.33;;
76852;SDS011;65825;52.232;10.566;2024-02-21T14:17:38;5.97;;;2.33;;
76852;SDS011;65825;52.232;10.566;2024-02-21T14:20:06;4.30;;;2.45;;
76852;SDS011;65825;52.232;10.566;2024-02-21T14:22:32;7.60;;;2.33;;
76852;SDS011;65825;52.232;10.566;2024-02-21T14:24:58;13.15;;;2.67;;
76852;SDS011;65825;52.232;10.566;2024-02-21T14:27:23;5.93;;;2.30;;
76852;SDS011;65825;52.232;10.566;2024-02-21T14:29:48;7.90;;;2.17;;
76852;SDS011;65825;52.232;10.566;2024-02-21T14:32:13;6.50;;;1.90;;
76852;SDS011;65825;52.232;10.566;2024-02-21T14:34:39;8.40;;;2.97;;
76852;SDS011;65825;52.232;10.566;2024-02-21T14:37:04;5.07;;;2.53;;